createdAt,value
2018-06-28T04:10:02.388Z,88.18
2018-06-28T04:10:27.882Z,87.8
2018-06-28T04:10:53.378Z,87.99
2018-06-28T04:11:18.874Z,88.37
2018-06-28T04:11:44.376Z,88.18
2018-06-28T04:12:53.081Z,88.09
2018-06-28T04:13:18.579Z,88.28
2018-06-28T04:13:44.075Z,88.09
2018-06-28T04:14:09.575Z,88.47
2018-06-28T04:14:35.061Z,88.28
2018-06-28T04:15:00.527Z,88.47
2018-06-28T04:15:26.039Z,88.47
2018-06-28T04:15:51.516Z,88.66
2018-06-28T04:16:17.010Z,88.47
2018-06-28T04:16:42.535Z,88.09
2018-06-28T04:17:07.978Z,88.56
2018-06-28T04:17:33.471Z,88.66
2018-06-28T04:17:58.973Z,88.56
2018-06-28T04:18:24.491Z,88.66
2018-06-28T04:18:49.989Z,88.66
2018-06-28T04:19:15.491Z,88.18
2018-06-28T04:19:40.977Z,88.56
2018-06-28T04:20:06.488Z,88.47
2018-06-28T04:20:31.998Z,88.47
2018-06-28T04:20:57.477Z,88.28
2018-06-28T04:21:22.962Z,88.37
2018-06-28T04:21:48.452Z,88.09
2018-06-28T04:22:13.929Z,87.99
2018-06-28T04:22:39.447Z,88.09
2018-06-28T04:23:04.906Z,88.09
2018-06-28T04:23:30.393Z,88.28
2018-06-28T04:23:55.898Z,88.09
2018-06-28T04:24:21.399Z,88.28
2018-06-28T04:24:46.897Z,88.47
2018-06-28T04:25:12.371Z,88.37
2018-06-28T04:25:37.862Z,88.47
2018-06-28T04:26:03.418Z,88.28
2018-06-28T04:26:28.865Z,87.65
2018-06-28T04:26:54.383Z,87.84
2018-06-28T04:27:19.891Z,87.74
2018-06-28T04:27:45.321Z,87.65
2018-06-28T04:28:10.842Z,87.94
2018-06-28T04:28:36.359Z,87.37
2018-06-28T04:29:01.856Z,87.46
2018-06-28T04:29:27.404Z,87.27
2018-06-28T04:29:52.891Z,87.46
2018-06-28T04:30:18.381Z,87.46
2018-06-28T04:30:43.874Z,87.17
2018-06-28T04:31:09.437Z,87.65
2018-06-28T04:31:34.966Z,87.46
2018-06-28T04:32:00.466Z,87.37
2018-06-28T04:32:25.983Z,87.37
2018-06-28T04:32:51.469Z,87.17
2018-06-28T04:33:16.989Z,87.27
2018-06-28T04:33:42.462Z,87.27
2018-06-28T04:34:07.937Z,86.88
2018-06-28T04:34:33.454Z,87.27
2018-06-28T04:34:58.960Z,87.46
2018-06-28T04:35:24.448Z,87.55
2018-06-28T04:35:49.926Z,86.88
2018-06-28T04:36:15.434Z,87.46
2018-06-28T04:36:40.969Z,86.6
2018-06-28T04:37:06.437Z,87.46
2018-06-28T04:37:31.942Z,86.69
2018-06-28T04:37:57.440Z,86.41
2018-06-28T04:38:22.924Z,86.98
2018-06-28T04:38:48.400Z,86.98
2018-06-28T04:39:13.926Z,86.74
2018-06-28T04:39:39.427Z,86.45
2018-06-28T04:40:04.957Z,85.97
2018-06-28T04:40:30.465Z,85.63
2018-06-28T04:40:55.954Z,85.34
2018-06-28T04:41:21.457Z,84.67
2018-06-28T04:41:46.957Z,85.05
2018-06-28T04:42:12.461Z,84.86
2018-06-28T04:42:37.985Z,84.28
2018-06-28T04:43:03.459Z,84.33
2018-06-28T04:43:29.011Z,84.14
2018-06-28T04:43:54.520Z,83.94
2018-06-28T04:44:20.013Z,83.27
2018-06-28T04:44:45.521Z,82.98
2018-06-28T04:45:11.070Z,82.7
2018-06-28T04:45:36.534Z,82.31
2018-06-28T04:46:02.017Z,82.51
2018-06-28T04:46:27.506Z,82.12
2018-06-28T04:46:52.994Z,81.78
2018-06-28T04:47:18.481Z,81.68
2018-06-28T04:47:44.015Z,81.3
2018-06-28T04:48:09.499Z,80.91
2018-06-28T04:48:34.969Z,81.01
2018-06-28T04:49:00.569Z,80.82
2018-06-28T04:49:26.060Z,80.34
2018-06-28T04:49:51.586Z,80.34
2018-06-28T04:50:17.074Z,79.67
2018-06-28T04:50:42.556Z,80.24
2018-06-28T04:51:08.064Z,79.8
2018-06-28T04:51:33.556Z,79.8
2018-06-28T04:51:59.064Z,79.8
2018-06-28T04:52:24.623Z,79.61
2018-06-28T04:52:50.030Z,79.22
2018-06-28T04:53:15.515Z,79.42
2018-06-28T04:53:41.010Z,78.65
2018-06-28T04:54:06.486Z,79.03
2018-06-28T04:54:32.004Z,78.94
2018-06-28T04:54:57.517Z,78.45
2018-06-28T04:55:22.976Z,78.36
2018-06-28T04:55:48.488Z,78.11
2018-06-28T04:56:14.006Z,78.21
2018-06-28T04:56:39.512Z,78.21
2018-06-28T04:57:05.022Z,77.83
2018-06-28T04:57:30.524Z,77.73
2018-06-28T04:57:56.061Z,77.73
2018-06-28T04:58:21.690Z,77.25
2018-06-28T04:58:47.324Z,78.02
2018-06-28T04:59:12.801Z,77.25
2018-06-28T04:59:38.485Z,77.73
2018-06-28T05:00:04.108Z,77.53
2018-06-28T05:00:29.596Z,76.57
2018-06-28T05:00:55.073Z,76.48
2018-06-28T05:01:20.592Z,76.48
2018-06-28T05:01:46.233Z,76.67
2018-06-28T05:02:11.763Z,76.71
2018-06-28T05:02:37.280Z,75.17
2018-06-28T05:03:02.785Z,74.88
2018-06-28T05:03:28.261Z,74.69
2018-06-28T05:03:53.753Z,75.27
2018-06-28T05:04:19.228Z,75.04
2018-06-28T05:04:44.722Z,75.46
2018-06-28T05:05:10.222Z,75.17
2018-06-28T05:05:35.713Z,75.37
2018-06-28T05:06:01.208Z,75.56
2018-06-28T05:06:26.707Z,75.17
2018-06-28T05:06:52.227Z,75.46
2018-06-28T05:07:17.803Z,75.27
2018-06-28T05:07:43.252Z,75.07
2018-06-28T05:08:08.764Z,75.27
2018-06-28T05:08:34.215Z,75.17
2018-06-28T05:08:59.732Z,75.27
2018-06-28T05:09:25.256Z,75.07
2018-06-28T05:09:50.692Z,75.27
2018-06-28T05:10:16.289Z,74.79
2018-06-28T05:10:41.786Z,74.69
2018-06-28T05:11:07.300Z,75.07
2018-06-28T05:11:32.854Z,74.98
2018-06-28T05:11:58.377Z,74.88
2018-06-28T05:12:23.833Z,74.98
2018-06-28T05:12:49.348Z,74.88
2018-06-28T05:13:14.825Z,74.98
2018-06-28T05:13:40.323Z,74.98
2018-06-28T05:14:05.844Z,74.79
2018-06-28T05:14:31.328Z,74.6
2018-06-28T05:14:56.811Z,74.25
2018-06-28T05:15:22.293Z,74.6
2018-06-28T05:15:47.790Z,74.4
2018-06-28T05:16:13.309Z,74.88
2018-06-28T05:17:16.909Z,74.63
2018-06-28T05:17:42.416Z,74.54
2018-06-28T05:18:07.922Z,74.34
2018-06-28T05:18:33.423Z,74.54
2018-06-28T05:18:58.906Z,74.54
2018-06-28T05:19:24.396Z,74.34
2018-06-28T05:19:49.888Z,74.25
2018-06-28T05:20:15.434Z,74.05
2018-06-28T05:20:40.933Z,73.96
2018-06-28T05:21:06.441Z,74.54
2018-06-28T05:21:31.903Z,74.25
2018-06-28T05:21:57.426Z,74.25
2018-06-28T05:22:22.943Z,74.05
2018-06-28T05:22:48.435Z,74.54
2018-06-28T05:23:13.922Z,73.86
2018-06-28T05:23:39.389Z,73.86
2018-06-28T05:24:04.890Z,74.54
2018-06-28T05:24:30.350Z,74.54
2018-06-28T05:24:56.020Z,74.34
2018-06-28T05:25:21.526Z,74.25
2018-06-28T05:25:47.052Z,74.63
2018-06-28T05:26:12.816Z,74.34
2018-06-28T05:26:38.290Z,73.86
2018-06-28T05:27:03.764Z,73.38
2018-06-28T05:27:29.282Z,73.96
2018-06-28T05:27:54.809Z,73.47
2018-06-28T05:28:20.259Z,73.51
2018-06-28T05:28:45.773Z,73.51
2018-06-28T05:29:11.339Z,73.42
2018-06-28T05:29:36.776Z,73.13
2018-06-28T05:30:02.253Z,73.13
2018-06-28T05:30:27.734Z,73.42
2018-06-28T05:30:53.221Z,72.74
2018-06-28T05:31:18.705Z,72.65
2018-06-28T05:31:44.192Z,72.65
2018-06-28T05:32:09.693Z,72.65
2018-06-28T05:32:35.210Z,72.74
2018-06-28T05:33:00.696Z,73.22
2018-06-28T05:33:26.227Z,73.03
2018-06-28T05:33:51.704Z,72.84
2018-06-28T05:34:17.197Z,72.36
2018-06-28T05:34:42.746Z,72.26
2018-06-28T05:35:08.192Z,72.17
2018-06-28T05:35:33.676Z,72.94
2018-06-28T05:35:59.178Z,72.26
2018-06-28T05:36:24.642Z,72.55
2018-06-28T05:36:50.142Z,72.26
2018-06-28T05:37:15.615Z,72.45
2018-06-28T05:37:41.137Z,72.59
2018-06-28T05:38:06.629Z,72.45
2018-06-28T05:38:32.133Z,72.36
2018-06-28T05:38:57.654Z,72.59
2018-06-28T05:39:23.147Z,72.49
2018-06-28T05:39:48.642Z,72.49
2018-06-28T05:40:14.121Z,72.49
2018-06-28T05:40:39.646Z,72.59
2018-06-28T05:41:05.120Z,71.72
2018-06-28T05:41:30.612Z,72.49
2018-06-28T05:41:56.106Z,72.01
2018-06-28T05:42:21.616Z,72.39
2018-06-28T05:42:47.105Z,72.39
2018-06-28T05:43:12.608Z,72.24
2018-06-28T05:43:38.127Z,71.72
2018-06-28T05:44:03.642Z,71.34
2018-06-28T05:44:29.179Z,71.56
2018-06-28T05:44:54.677Z,71.66
2018-06-28T05:45:20.181Z,71.47
2018-06-28T05:45:45.671Z,71.28
2018-06-28T05:46:11.136Z,71.08
2018-06-28T05:46:36.630Z,70.89
2018-06-28T05:47:02.145Z,71.08
2018-06-28T05:47:27.632Z,71.08
2018-06-28T05:47:53.152Z,71.08
2018-06-28T05:48:18.672Z,70.6
2018-06-28T05:48:44.205Z,70.79
2018-06-28T05:49:09.704Z,70.89
2018-06-28T05:49:35.172Z,70.79
2018-06-28T05:50:00.670Z,70.92
2018-06-28T05:50:26.176Z,70.35
2018-06-28T05:50:51.776Z,69.57
2018-06-28T05:51:17.176Z,69.29
2018-06-28T05:51:42.685Z,68.71
2018-06-28T05:52:08.188Z,68.61
2018-06-28T05:52:33.702Z,68.8
2018-06-28T05:52:59.249Z,69.09
2018-06-28T05:53:24.693Z,68.99
2018-06-28T05:53:50.195Z,69.09
2018-06-28T05:54:15.705Z,69.19
2018-06-28T05:54:41.223Z,68.52
2018-06-28T05:55:06.720Z,68.71
2018-06-28T05:55:32.197Z,67.74
2018-06-28T05:55:57.690Z,67.55
2018-06-28T05:56:23.193Z,67.65
2018-06-28T05:56:48.690Z,67.4
2018-06-28T05:57:14.187Z,67.07
2018-06-28T05:57:39.706Z,66.97
2018-06-28T05:58:05.199Z,67.1
2018-06-28T05:58:30.703Z,66.14
2018-06-28T05:58:56.161Z,66.04
2018-06-28T05:59:21.657Z,65.66
2018-06-28T05:59:47.154Z,65.95
2018-06-28T06:00:12.659Z,65.37
2018-06-28T06:00:38.141Z,65.75
2018-06-28T06:01:03.661Z,65.56
2018-06-28T06:01:29.312Z,65.85
2018-06-28T06:01:54.675Z,65.75
2018-06-28T06:02:20.141Z,65.17
2018-06-28T06:02:45.647Z,65.27
2018-06-28T06:03:11.162Z,65.37
2018-06-28T06:03:36.716Z,65.17
2018-06-28T06:04:02.191Z,65.08
2018-06-28T06:04:27.733Z,65.59
2018-06-28T06:04:53.227Z,65.95
2018-06-28T06:05:18.724Z,66.17
2018-06-28T06:05:44.235Z,65.69
2018-06-28T06:06:09.755Z,65.98
2018-06-28T06:06:35.234Z,64.72
2018-06-28T06:07:00.740Z,63.95
2018-06-28T06:07:26.231Z,64.05
2018-06-28T06:07:51.724Z,63.57
2018-06-28T06:08:17.202Z,62.51
2018-06-28T06:08:42.726Z,63.09
2018-06-28T06:09:08.233Z,62.22
2018-06-28T06:09:33.726Z,62.02
2018-06-28T06:09:59.209Z,62.41
2018-06-28T06:10:24.751Z,62.51
2018-06-28T06:10:50.208Z,62.51
2018-06-28T06:11:15.748Z,61.83
2018-06-28T06:11:41.237Z,62.02
2018-06-28T06:12:06.809Z,62.12
2018-06-28T06:12:32.246Z,62.6
2018-06-28T06:12:57.745Z,62.31
2018-06-28T06:13:23.201Z,62.41
2018-06-28T06:13:48.768Z,62.41
2018-06-28T06:14:14.243Z,62.41
2018-06-28T06:14:39.755Z,62.12
2018-06-28T06:15:05.262Z,62.05
2018-06-28T06:15:30.762Z,62.34
2018-06-28T06:15:56.226Z,62.12
2018-06-28T06:16:21.728Z,62.25
2018-06-28T06:16:47.176Z,62.25
2018-06-28T06:17:12.691Z,62.25
2018-06-28T06:17:38.177Z,61.28
2018-06-28T06:18:03.679Z,61.28
2018-06-28T06:18:29.136Z,61.19
2018-06-28T06:18:54.632Z,61.57
2018-06-28T06:19:20.133Z,61.77
2018-06-28T06:19:45.608Z,61.77
2018-06-28T06:20:11.104Z,61.38
2018-06-28T06:20:36.598Z,61.19
2018-06-28T06:21:02.090Z,60.99
2018-06-28T06:21:27.587Z,60.99
2018-06-28T06:21:53.061Z,61.67
2018-06-28T06:22:18.552Z,61.28
2018-06-28T06:22:44.049Z,61.47
2018-06-28T06:23:09.539Z,61.51
2018-06-28T06:23:35.044Z,61.31
2018-06-28T06:24:00.546Z,61.7
2018-06-28T06:24:26.059Z,61.41
2018-06-28T06:24:51.559Z,61.8
2018-06-28T06:25:17.062Z,60.83
2018-06-28T06:25:42.543Z,60.54
2018-06-28T06:26:08.068Z,60.64
2018-06-28T06:26:33.596Z,61.12
2018-06-28T06:26:59.066Z,60.64
2018-06-28T06:27:24.574Z,61.02
2018-06-28T06:27:50.078Z,61.22
2018-06-28T06:28:15.553Z,61.25
2018-06-28T06:28:41.049Z,61.05
2018-06-28T06:29:06.573Z,61.25
2018-06-28T06:30:05.207Z,61.25
2018-06-28T06:30:30.719Z,60.96
2018-06-28T06:30:56.194Z,60.96
2018-06-28T06:31:21.682Z,59.7
2018-06-28T06:31:47.206Z,59.51
2018-06-28T06:32:12.688Z,59.31
2018-06-28T06:32:38.224Z,59.31
2018-06-28T06:33:03.707Z,59.22
2018-06-28T06:33:29.210Z,59.31
2018-06-28T06:33:54.705Z,59.22
2018-06-28T06:34:20.229Z,59.6
2018-06-28T06:34:45.705Z,59.15
2018-06-28T06:35:11.206Z,59.44
2018-06-28T06:35:36.720Z,59.44
2018-06-28T06:36:02.203Z,59.25
2018-06-28T06:36:27.720Z,58.57
2018-06-28T06:36:53.172Z,58.76
2018-06-28T06:37:18.661Z,58.57
2018-06-28T06:37:44.213Z,57.89
2018-06-28T06:38:09.701Z,57.79
2018-06-28T06:38:35.205Z,57.99
2018-06-28T06:39:00.701Z,58.37
2018-06-28T06:39:26.203Z,58.57
2018-06-28T06:39:51.690Z,58.95
2018-06-28T06:40:17.221Z,59.05
2018-06-28T06:40:42.824Z,59.25
2018-06-28T06:41:08.254Z,59.44
2018-06-28T06:41:33.716Z,58.67
2018-06-28T06:41:59.210Z,58.67
2018-06-28T06:42:24.740Z,58.7
2018-06-28T06:42:50.205Z,58.8
2018-06-28T06:43:15.692Z,58.5
2018-06-28T06:43:41.187Z,57.92
2018-06-28T06:44:06.685Z,56.86
2018-06-28T06:44:32.159Z,56.95
2018-06-28T06:44:57.644Z,57.05
2018-06-28T06:45:23.175Z,56.95
2018-06-28T06:45:48.698Z,55.89
2018-06-28T06:46:14.198Z,56.47
2018-06-28T06:46:39.742Z,56.09
2018-06-28T06:47:43.350Z,57.03
2018-06-28T06:48:08.852Z,55.51
2018-06-28T06:48:34.359Z,55.57
2018-06-28T06:48:59.868Z,55.29
2018-06-28T06:49:25.376Z,55.57
2018-06-28T06:49:50.862Z,55.47
2018-06-28T06:50:49.430Z,56.35
2018-06-28T06:51:14.934Z,56.73
2018-06-28T06:51:40.436Z,56.15
2018-06-28T06:52:05.922Z,56.05
2018-06-28T06:52:31.430Z,56.05
2018-06-28T06:52:56.921Z,56.25
2018-06-28T06:53:22.409Z,56.37
2018-06-28T06:53:47.929Z,56.28
2018-06-28T06:54:13.418Z,55.6
2018-06-28T06:54:38.904Z,55.6
2018-06-28T06:55:04.405Z,55.6
2018-06-28T06:55:29.907Z,55.02
2018-06-28T06:55:55.417Z,55.19
2018-06-28T06:56:20.903Z,55.41
2018-06-28T06:56:46.371Z,55.89
2018-06-28T06:57:12.073Z,55.89
2018-06-28T06:57:37.359Z,56.09
2018-06-28T06:58:02.804Z,56.28
2018-06-28T06:58:28.290Z,56.18
2018-06-28T06:58:53.877Z,56.09
2018-06-28T06:59:19.400Z,56.57
2018-06-28T06:59:44.904Z,56.11
2018-06-28T07:00:10.393Z,56.18
2018-06-28T07:00:35.925Z,56.3
2018-06-28T07:01:01.391Z,56.4
2018-06-28T07:01:26.919Z,56.21
2018-06-28T07:01:52.422Z,56.11
2018-06-28T07:02:17.933Z,56.5
2018-06-28T07:02:43.442Z,55.53
2018-06-28T07:03:08.940Z,55.92
2018-06-28T07:03:34.495Z,55.53
2018-06-28T07:03:59.947Z,55.46
2018-06-28T07:04:25.555Z,54.98
2018-06-28T07:04:50.994Z,55.66
2018-06-28T07:05:16.512Z,55.63
2018-06-28T07:05:42.025Z,55.56
2018-06-28T07:06:07.541Z,55.46
2018-06-28T07:06:33.051Z,55.46
2018-06-28T07:06:58.528Z,55.07
2018-06-28T07:07:24.005Z,55.07
2018-06-28T07:07:49.513Z,55
2018-06-28T07:08:15.003Z,54.52
2018-06-28T07:08:40.465Z,54.81
2018-06-28T07:09:05.960Z,53.85
2018-06-28T07:09:31.460Z,53.94
2018-06-28T07:09:57.096Z,53.75
2018-06-28T07:10:22.719Z,53.75
2018-06-28T07:10:48.203Z,53.26
2018-06-28T07:11:13.695Z,53.07
2018-06-28T07:11:39.169Z,53.17
2018-06-28T07:12:04.656Z,53.17
2018-06-28T07:12:30.134Z,53.26
2018-06-28T07:12:55.685Z,53.65
2018-06-28T07:13:21.199Z,54.26
2018-06-28T07:13:46.734Z,53.29
2018-06-28T07:14:12.261Z,52.71
2018-06-28T07:14:37.762Z,52.22
2018-06-28T07:15:03.220Z,52.71
2018-06-28T07:15:28.779Z,52.8
2018-06-28T07:15:54.371Z,52.42
2018-06-28T07:16:19.813Z,52.22
2018-06-28T07:16:45.309Z,52.42
2018-06-28T07:17:10.797Z,52.61
2018-06-28T07:17:36.291Z,53.29
2018-06-28T07:18:01.840Z,53.19
2018-06-28T07:18:27.411Z,53.09
2018-06-28T07:18:52.917Z,53.09
2018-06-28T07:19:18.441Z,53.19
2018-06-28T07:19:43.935Z,53.12
2018-06-28T07:20:09.464Z,53.29
2018-06-28T07:20:34.965Z,53.22
2018-06-28T07:21:00.458Z,53.22
2018-06-28T07:21:25.975Z,53.22
2018-06-28T07:21:51.464Z,52.83
2018-06-28T07:22:16.993Z,52.83
2018-06-28T07:22:42.517Z,53.02
2018-06-28T07:23:08.110Z,52.25
2018-06-28T07:23:33.585Z,52.73
2018-06-28T07:23:59.106Z,52.83
2018-06-28T07:24:24.597Z,52.44
2018-06-28T07:24:50.106Z,52.25
2018-06-28T07:25:15.630Z,51.57
2018-06-28T07:25:41.101Z,51.28
2018-06-28T07:26:06.584Z,51.09
2018-06-28T07:26:32.086Z,51.28
2018-06-28T07:26:57.610Z,51.37
2018-06-28T07:27:23.074Z,51.28
2018-06-28T07:27:48.579Z,50.89
2018-06-28T07:28:14.081Z,50.41
2018-06-28T07:28:39.721Z,50.5
2018-06-28T07:29:05.194Z,50.5
2018-06-28T07:29:30.742Z,50.5
2018-06-28T07:29:56.236Z,50.7
2018-06-28T07:30:21.717Z,50.5
2018-06-28T07:30:47.305Z,50.21
2018-06-28T07:31:12.782Z,50.5
2018-06-28T07:31:38.321Z,50.21
2018-06-28T07:32:03.825Z,50.02
2018-06-28T07:32:29.329Z,50.6
2018-06-28T07:32:54.810Z,51.18
2018-06-28T07:33:20.280Z,51.09
2018-06-28T07:33:45.812Z,50.99
2018-06-28T07:34:11.321Z,51.28
2018-06-28T07:34:36.840Z,51.28
2018-06-28T07:35:02.431Z,51.28
2018-06-28T07:35:27.835Z,51.37
2018-06-28T07:35:53.451Z,51.28
2018-06-28T07:36:18.947Z,50.12
2018-06-28T07:36:44.432Z,50.31
2018-06-28T07:37:09.933Z,50.41
2018-06-28T07:37:35.414Z,49.24
2018-06-28T07:38:00.896Z,49.73
2018-06-28T07:38:26.396Z,49.44
2018-06-28T07:38:51.930Z,49.63
2018-06-28T07:39:17.413Z,49.44
2018-06-28T07:39:42.884Z,49.63
2018-06-28T07:40:08.388Z,50.21
2018-06-28T07:40:33.923Z,50.43
2018-06-28T07:40:59.671Z,50.53
2018-06-28T07:41:25.174Z,50.62
2018-06-28T07:41:50.692Z,50.53
2018-06-28T07:42:16.329Z,49.66
2018-06-28T07:42:41.685Z,49.75
2018-06-28T07:43:07.175Z,49.95
2018-06-28T07:43:32.675Z,49.56
2018-06-28T07:43:58.277Z,49.75
2018-06-28T07:44:23.714Z,49.75
2018-06-28T07:44:49.219Z,49.97
2018-06-28T07:45:14.713Z,49.46
2018-06-28T07:45:40.185Z,49.58
2018-06-28T07:46:05.681Z,49.46
2018-06-28T07:46:31.187Z,49.39
2018-06-28T07:46:56.733Z,49.49
2018-06-28T07:47:22.189Z,49.1
2018-06-28T07:47:47.706Z,48.88
2018-06-28T07:48:13.180Z,48.71
2018-06-28T07:48:38.669Z,49
2018-06-28T07:49:04.199Z,48.8
2018-06-28T07:49:29.696Z,48.71
2018-06-28T07:49:55.179Z,48.8
2018-06-28T07:50:20.719Z,48.71
2018-06-28T07:50:46.199Z,48.71
2018-06-28T07:51:11.701Z,48.8
2018-06-28T07:51:37.293Z,47.83
2018-06-28T07:52:02.685Z,47.45
2018-06-28T07:52:28.209Z,47.64
2018-06-28T07:52:53.715Z,47.45
2018-06-28T07:53:19.204Z,47.74
2018-06-28T07:53:44.718Z,47.93
2018-06-28T07:54:10.238Z,47.55
2018-06-28T07:54:35.756Z,47.64
2018-06-28T07:55:01.253Z,47.74
2018-06-28T07:55:26.785Z,47.25
2018-06-28T07:56:30.408Z,47.74
2018-06-28T07:56:55.907Z,47.64
2018-06-28T07:57:21.386Z,47.25
2018-06-28T07:57:46.886Z,47.35
2018-06-28T07:58:12.384Z,47.16
2018-06-28T07:58:37.864Z,47.25
2018-06-28T07:59:03.372Z,47.74
2018-06-28T07:59:28.834Z,48.42
2018-06-28T07:59:54.332Z,47.64
2018-06-28T08:00:19.826Z,47.83
2018-06-28T08:00:45.351Z,47.45
2018-06-28T08:01:10.838Z,47.64
2018-06-28T08:01:36.312Z,47.74
2018-06-28T08:02:01.766Z,47.64
2018-06-28T08:02:27.241Z,47.16
2018-06-28T08:02:52.729Z,47.16
2018-06-28T08:03:18.258Z,46.28
2018-06-28T08:03:43.770Z,45.8
2018-06-28T08:04:09.393Z,45.7
2018-06-28T08:04:34.772Z,45.48
2018-06-28T08:05:00.279Z,46.45
2018-06-28T08:05:25.823Z,46.84
2018-06-28T08:05:51.328Z,46.75
2018-06-28T08:06:16.804Z,47.23
2018-06-28T08:06:42.326Z,47.33
2018-06-28T08:07:07.804Z,47.42
2018-06-28T08:07:33.305Z,47.33
2018-06-28T08:07:58.969Z,47.03
2018-06-28T08:08:24.427Z,46.94
2018-06-28T08:08:49.930Z,46.94
2018-06-28T08:09:15.452Z,47.42
2018-06-28T08:09:40.940Z,47.33
2018-06-28T08:10:06.429Z,47.33
2018-06-28T08:10:31.907Z,47.03
2018-06-28T08:10:57.411Z,47.79
2018-06-28T08:11:22.866Z,47.69
2018-06-28T08:11:48.418Z,48.08
2018-06-28T08:12:13.869Z,48.47
2018-06-28T08:12:39.344Z,48.47
2018-06-28T08:13:04.834Z,48.95
2018-06-28T08:13:30.335Z,48.85
2018-06-28T08:13:55.831Z,48.95
2018-06-28T08:14:21.343Z,48.88
2018-06-28T08:14:46.795Z,49.17
2018-06-28T08:15:12.298Z,49.37
2018-06-28T08:15:37.807Z,49.46
2018-06-28T08:16:03.306Z,48.8
2018-06-28T08:16:56.749Z,48.61
2018-06-28T08:17:22.251Z,48.61
2018-06-28T08:17:47.748Z,48.9
2018-06-28T08:18:13.235Z,48.13
2018-06-28T08:18:38.702Z,47.45
2018-06-28T08:19:04.224Z,47.28
2018-06-28T08:19:29.716Z,47.38
2018-06-28T08:19:55.180Z,47.38
2018-06-28T08:20:20.653Z,46.5
2018-06-28T08:20:46.154Z,46.01
2018-06-28T08:21:11.676Z,45.24
2018-06-28T08:21:37.206Z,44.46
2018-06-28T08:22:02.678Z,45.34
2018-06-28T08:22:28.178Z,45.04
2018-06-28T08:22:53.686Z,45.41
2018-06-28T08:23:19.162Z,45.43
2018-06-28T08:23:44.655Z,45.41
2018-06-28T08:24:10.123Z,45.99
2018-06-28T08:24:35.621Z,45.89
2018-06-28T08:25:01.145Z,46.28
2018-06-28T08:25:26.612Z,46.31
2018-06-28T08:25:52.083Z,45.72
2018-06-28T08:26:55.286Z,46.79
2018-06-28T08:27:20.725Z,46.89
2018-06-28T08:27:46.217Z,45.62
2018-06-28T08:28:11.757Z,45.72
2018-06-28T08:28:37.223Z,45.62
2018-06-28T08:29:02.834Z,45.82
2018-06-28T08:29:28.351Z,45.72
2018-06-28T08:29:53.852Z,45.92
2018-06-28T08:30:19.334Z,45.82
2018-06-28T08:30:44.810Z,45.92
2018-06-28T08:31:10.313Z,46.19
2018-06-28T08:31:35.818Z,46.28
2018-06-28T08:32:01.292Z,45.7
2018-06-28T08:32:26.748Z,45.51
2018-06-28T08:33:20.228Z,45.89
2018-06-28T08:33:45.722Z,45.89
2018-06-28T08:34:11.227Z,45.99
2018-06-28T08:34:36.740Z,46.48
2018-06-28T08:35:02.252Z,46.19
2018-06-28T08:35:27.749Z,46.98
2018-06-28T08:35:53.317Z,46.96
2018-06-28T08:36:18.788Z,47.06
2018-06-28T08:36:44.298Z,46.6
2018-06-28T08:37:09.781Z,46.31
2018-06-28T08:37:35.256Z,46.11
2018-06-28T08:38:00.765Z,46.31
2018-06-28T08:38:26.247Z,46.69
2018-06-28T08:38:51.834Z,46.31
2018-06-28T08:39:50.395Z,46.01
2018-06-28T08:40:15.893Z,46.01
2018-06-28T08:40:41.396Z,45.53
2018-06-28T08:41:06.962Z,45.21
2018-06-28T08:41:32.502Z,45.53
2018-06-28T08:41:57.953Z,46.01
2018-06-28T08:42:23.445Z,45.53
2018-06-28T08:42:48.913Z,45.24
2018-06-28T08:43:14.396Z,45.04
2018-06-28T08:43:39.893Z,45.72
2018-06-28T08:44:05.389Z,45.04
2018-06-28T08:44:30.888Z,45.14
2018-06-28T08:44:56.376Z,44.27
2018-06-28T08:45:21.882Z,44.37
2018-06-28T08:45:47.388Z,44.17
2018-06-28T08:46:12.876Z,45.24
2018-06-28T08:46:38.429Z,44.65
2018-06-28T08:47:03.913Z,45.43
2018-06-28T08:47:29.420Z,45.14
2018-06-28T08:47:54.917Z,45.17
2018-06-28T08:48:20.412Z,44.58
2018-06-28T08:48:45.932Z,44.09
2018-06-28T08:49:11.413Z,44.19
2018-06-28T08:49:36.893Z,43.9
2018-06-28T08:50:02.388Z,43.8
2018-06-28T08:50:27.886Z,43.51
2018-06-28T08:50:53.409Z,42.44
2018-06-28T08:51:18.919Z,43.02
2018-06-28T08:51:44.415Z,43.32
2018-06-28T08:52:09.913Z,42.56
2018-06-28T08:52:35.417Z,42.44
2018-06-28T08:53:00.907Z,42.36
2018-06-28T08:53:26.404Z,42.66
2018-06-28T08:53:51.904Z,42.27
2018-06-28T08:54:17.415Z,42.36
2018-06-28T08:54:42.944Z,41.78
2018-06-28T08:55:08.413Z,41.78
2018-06-28T08:55:33.884Z,42.08
2018-06-28T08:55:59.383Z,42.08
2018-06-28T08:56:24.890Z,42.08
2018-06-28T08:56:50.393Z,42.18
2018-06-28T08:57:15.856Z,41.49
2018-06-28T08:57:41.445Z,41.2
2018-06-28T08:58:06.869Z,41.59
2018-06-28T08:58:32.348Z,41.59
2018-06-28T08:58:57.865Z,41.3
2018-06-28T08:59:23.393Z,41.03
2018-06-28T08:59:48.890Z,41.01
2018-06-28T09:00:14.401Z,41.2
2018-06-28T09:00:39.894Z,40.72
2018-06-28T09:01:05.395Z,40.62
2018-06-28T09:01:30.892Z,40.52
2018-06-28T09:01:56.400Z,40.42
2018-06-28T09:02:21.876Z,40.52
2018-06-28T09:02:47.370Z,41.28
2018-06-28T09:03:12.913Z,40.89
2018-06-28T09:03:38.392Z,40.69
2018-06-28T09:04:03.915Z,40.11
2018-06-28T09:04:29.451Z,40.21
2018-06-28T09:04:54.995Z,40.5
2018-06-28T09:05:20.510Z,41.18
2018-06-28T09:05:46.024Z,40.99
2018-06-28T09:06:11.486Z,41.57
2018-06-28T09:06:36.966Z,41.86
2018-06-28T09:07:02.554Z,41.57
2018-06-28T09:07:28.016Z,42.05
2018-06-28T09:07:53.495Z,42.64
2018-06-28T09:08:18.975Z,42.35
2018-06-28T09:08:44.437Z,42.15
2018-06-28T09:09:09.935Z,42.25
2018-06-28T09:09:35.450Z,42.74
2018-06-28T09:10:00.944Z,42.35
2018-06-28T09:10:26.427Z,42.64
2018-06-28T09:11:30.061Z,43.05
2018-06-28T09:11:55.566Z,43.05
2018-06-28T09:12:21.072Z,42.76
2018-06-28T09:12:46.570Z,41.98
2018-06-28T09:13:12.057Z,41.2
2018-06-28T09:13:37.521Z,41.1
2018-06-28T09:14:03.035Z,41.3
2018-06-28T09:14:28.525Z,40.91
2018-06-28T09:14:54.054Z,41.49
2018-06-28T09:15:19.567Z,41.69
2018-06-28T09:15:45.026Z,41.59
2018-06-28T09:16:10.510Z,41.69
2018-06-28T09:16:35.993Z,41.59
2018-06-28T09:17:01.451Z,41.59
2018-06-28T09:17:26.951Z,41.3
2018-06-28T09:17:52.445Z,40.13
2018-06-28T09:18:17.912Z,40.33
2018-06-28T09:18:43.431Z,40.62
2018-06-28T09:19:08.917Z,41.01
2018-06-28T09:19:34.487Z,41.69
2018-06-28T09:19:59.939Z,42.08
2018-06-28T09:20:53.387Z,41.49
2018-06-28T09:21:18.897Z,40.52
2018-06-28T09:21:44.385Z,40.42
2018-06-28T09:22:09.863Z,40.23
2018-06-28T09:22:35.433Z,40.52
2018-06-28T09:23:00.907Z,40.13
2018-06-28T09:23:26.376Z,40.52
2018-06-28T09:23:51.874Z,40.42
2018-06-28T09:24:17.373Z,41.2
2018-06-28T09:24:42.904Z,40.91
2018-06-28T09:25:08.363Z,41.3
2018-06-28T09:25:33.854Z,40.62
2018-06-28T09:25:59.352Z,40.41
2018-06-28T09:26:24.850Z,40.11
2018-06-28T09:26:50.350Z,41.08
2018-06-28T09:27:15.863Z,41.08
2018-06-28T09:27:41.347Z,41.18
2018-06-28T09:28:06.867Z,41.67
2018-06-28T09:28:32.371Z,41.18
2018-06-28T09:28:57.873Z,41.28
2018-06-28T09:29:23.358Z,41.38
2018-06-28T09:29:48.851Z,42.15
2018-06-28T09:30:14.386Z,41.86
2018-06-28T09:30:39.888Z,42.44
2018-06-28T09:31:05.384Z,42.64
2018-06-28T09:31:30.898Z,42.18
2018-06-28T09:31:56.423Z,42.36
2018-06-28T09:32:21.930Z,42.56
2018-06-28T09:32:47.454Z,41.98
2018-06-28T09:33:51.076Z,41.3
2018-06-28T09:34:16.554Z,40.81
2018-06-28T09:34:42.059Z,41.01
2018-06-28T09:35:07.520Z,40.81
2018-06-28T09:35:33.027Z,41.69
2018-06-28T09:35:58.571Z,41.3
2018-06-28T09:36:23.975Z,41.2
2018-06-28T09:36:49.527Z,40.81
2018-06-28T09:37:14.951Z,41.2
2018-06-28T09:37:40.450Z,41.03
2018-06-28T09:38:05.916Z,41.3
2018-06-28T09:38:31.382Z,41.49
2018-06-28T09:38:56.859Z,42.39
2018-06-28T09:39:22.401Z,42.19
2018-06-28T09:39:47.872Z,42.39
2018-06-28T09:40:13.391Z,42.39
2018-06-28T09:40:38.884Z,42.21
2018-06-28T09:41:04.376Z,40.85
2018-06-28T09:41:29.879Z,41.05
2018-06-28T09:41:55.412Z,41.05
2018-06-28T09:42:20.927Z,41.24
2018-06-28T09:42:46.415Z,41.44
2018-06-28T09:43:11.901Z,41.53
2018-06-28T09:43:37.414Z,41.06
2018-06-28T09:44:02.914Z,40.19
2018-06-28T09:44:28.417Z,40.09
2018-06-28T09:44:53.880Z,39.69
2018-06-28T09:45:19.355Z,39
2018-06-28T09:45:44.881Z,39
2018-06-28T09:46:10.366Z,39.2
2018-06-28T09:46:35.843Z,39.49
2018-06-28T09:47:01.339Z,39.37